Richvale, CA (95974)

8:05 PM PDT on March 27, 2017 (GMT -0700)
MTWSC1 | | Change Station
Active Advisory: Hydrologic Statement

Elev 137 ft 39.46 °N, 121.67 °W | Updated 10 minutes ago

Clear
Clear
62.0 °F
Feels Like 62.0 °F
N
11.0
Wind Variable Wind from NNE

Today
High -- | Low -- °F
--% Chance of Precip.
Yesterday
High -- | Low -- °F
Precip. -- in
Pressure 30.22 in
Visibility 10.0 miles
Clouds Clear
Dew Point 40 °F
Humidity 45%
Rainfall 0.02 in
Snow Depth Not available.
6:59 AM 7:26 PM
New Moon, 0% visible
METAR KOVE 280253Z AUTO 32004KT 10SM CLR 13/06 A3021 RMK AO2 SLP232 T01280056 53009
Pressure 30.22 in
Visibility 10.0 miles
Clouds Clear
Dew Point 40 °F
Humidity 45%
Rainfall 0.02 in
Snow Depth Not available.
6:59 AM 7:26 PM
New Moon, 0% visible
METAR KOVE 280253Z AUTO 32004KT 10SM CLR 13/06 A3021 RMK AO2 SLP232 T01280056 53009

Get Your Daily Forecast Email!

Thanks for signing up!

Be on the lookout for a verification email in your inbox.

You'll start receiving severe weather alerts in your inbox..

×

10-Day Weather Forecast

Almanac

Astronomy

Mar. 27, 2017 Rise Set
Actual Time
Civil Twilight
Nautical Twilight
Astronomical Twilight
Moon
Length of Visible Light
Length of Day
Tomorrow will be .
, % of the Moon is Illuminated

Today's Extremes

State Highs State Lows

Community

WunderPhotos

Upload Photos

1,962,540 photos uploaded!

WunderBlog® & News

Nearby

Air Quality

  Air Quality AQ Index Pollutant
Not available.

Snow Depth

Station Depth Elevation

Earthquake Activity

City Distance Mag. Time & Date
Minimum magnitude displayed is 2.5.

Earthquake Activity

City Distance Mag. Time & Date
Minimum magnitude displayed is 2.5.

Coastal Water Temperatures

Place Temperature

Stations

Nearby Weather Stations

Station Location Temp. Windchill Dew Point Humidity Wind Precip. Elev Updated Type
                   

Watches & Warnings

Hydrologic Statement
Issued: 7:49 AM PDT Mar. 27, 2017 – National Weather Service

Forecast information for
feather river near Nicolaus.
* At 7:15 am Monday the stage was 39.1 feet.
* Forecast to fall below monitor stage of 39.0 ft late this morning
then forecast to recede to near 38.5 ft tomorrow morning.
* Flood stage 47.0 ft
* monitor stage 39.0 ft


&&

Lat... Lon 3897 12165 3903 12149 3884 12150 3876 12168